Time;durP1;ratioP1;P1;durP2;ratioP2;P2;SDS_P1;SDS_P2;PMS_P1;PMS_P2;Temp;Humidity;BMP_temperature;BMP_pressure;BME280_temperature;BME280_humidity;BME280_pressure;Samples;Min_cycle;Max_cycle;Signal;HPM_P1;HPM_P2
2022/01/24 00:01:44;;;;;;;9.45;6.13;;;;;;;;;;4932606;29;20245;-86
2022/01/24 00:04:10;;;;;;;11.32;6.85;;;;;;;;;;4930936;29;20029;-86
2022/01/24 00:06:36;;;;;;;11.90;6.75;;;;;;;;;;4938929;29;20020;-83
2022/01/24 00:09:04;;;;;;;12.15;6.90;;;;;;;;;;4926603;29;20032;-83
2022/01/24 00:12:17;;;;;;;11.52;6.72;;;;;;;;;;4933213;29;20418;-83
2022/01/24 00:27:10;;;;;;;10.93;5.88;;;;;;;;;;4934075;29;20042;-85
2022/01/24 00:29:35;;;;;;;9.77;5.68;;;;;;;;;;4930298;29;20035;-83
2022/01/24 00:32:00;;;;;;;10.15;5.80;;;;;;;;;;4930499;29;20031;-84
2022/01/24 00:34:26;;;;;;;12.90;6.85;;;;;;;;;;4935429;29;20103;-82
2022/01/24 00:36:52;;;;;;;10.95;6.30;;;;;;;;;;4938660;29;20115;-84
2022/01/24 00:39:19;;;;;;;9.90;6.93;;;;;;;;;;4931814;29;20024;-84
2022/01/24 00:45:03;;;;;;;11.10;6.18;;;;;;;;;;4932754;29;20051;-85
2022/01/24 00:47:22;;;;;;;12.98;7.07;;;;;;;;;;4934412;29;20067;-82
2022/01/24 00:55:18;;;;;;;13.65;7.57;;;;;;;;;;4933445;29;20080;-83
2022/01/24 00:57:43;;;;;;;11.55;7.18;;;;;;;;;;4937665;29;20047;-83
2022/01/24 01:00:09;;;;;;;9.90;6.10;;;;;;;;;;4937289;29;20046;-85
2022/01/24 01:02:35;;;;;;;9.77;6.13;;;;;;;;;;4932180;29;20103;-84
2022/01/24 01:18:15;;;;;;;11.45;6.40;;;;;;;;;;4936876;29;20059;-84
2022/01/24 01:21:08;;;;;;;10.23;6.28;;;;;;;;;;4942198;29;20027;-85
2022/01/24 01:23:35;;;;;;;;;;;;;;;;;;4926954;29;20023;-84
2022/01/24 01:26:05;;;;;;;11.52;6.00;;;;;;;;;;4938076;29;19914;-86
2022/01/24 01:28:32;;;;;;;9.70;5.80;;;;;;;;;;4939598;29;20024;-84
2022/01/24 01:31:02;;;;;;;10.30;6.32;;;;;;;;;;4924772;29;20020;-85
2022/01/24 01:36:10;;;;;;;9.35;5.75;;;;;;;;;;4941409;29;20024;-84
2022/01/24 01:38:58;;;;;;;10.48;6.32;;;;;;;;;;4935668;29;20035;-85
2022/01/24 01:55:59;;;;;;;12.15;6.07;;;;;;;;;;4939496;29;20071;-85
2022/01/24 01:58:03;;;;;;;10.98;5.65;;;;;;;;;;4933573;29;20047;-82
2022/01/24 02:00:28;;;;;;;8.95;5.82;;;;;;;;;;4937362;29;20028;-84
2022/01/24 02:02:53;;;;;;;11.43;6.57;;;;;;;;;;4939731;29;20087;-82
2022/01/24 02:05:20;;;;;;;11.95;6.18;;;;;;;;;;4942955;29;20024;-86
2022/01/24 02:07:51;;;;;;;9.23;5.43;;;;;;;;;;4943473;29;20122;-85
2022/01/24 02:10:18;;;;;;;8.63;5.72;;;;;;;;;;4943902;29;20047;-85
2022/01/24 02:12:44;;;;;;;9.13;5.82;;;;;;;;;;4944188;29;20031;-85
2022/01/24 02:15:11;;;;;;;8.82;5.55;;;;;;;;;;4944691;29;20026;-86
2022/01/24 02:23:01;;;;;;;11.02;5.70;;;;;;;;;;4944837;29;20032;-86
2022/01/24 02:25:29;;;;;;;9.90;5.45;;;;;;;;;;4930020;29;20036;-85
2022/01/24 02:28:13;;;;;;;9.95;5.78;;;;;;;;;;4949382;28;20518;-85
2022/01/24 02:31:18;;;;;;;12.50;6.85;;;;;;;;;;4944040;29;20038;-85
2022/01/24 02:33:45;;;;;;;10.77;6.15;;;;;;;;;;4946157;29;20161;-85
2022/01/24 02:36:10;;;;;;;9.02;6.30;;;;;;;;;;4946810;29;20019;-85
2022/01/24 02:38:47;;;;;;;13.55;6.97;;;;;;;;;;4940199;29;20031;-85
2022/01/24 02:49:30;;;;;;;10.30;6.25;;;;;;;;;;4943496;29;20031;-86
2022/01/24 02:52:12;;;;;;;11.43;6.43;;;;;;;;;;4944396;29;20031;-85
2022/01/24 02:54:38;;;;;;;9.10;6.32;;;;;;;;;;4945250;29;20028;-85
2022/01/24 02:57:06;;;;;;;10.60;6.63;;;;;;;;;;4945620;29;20086;-85
2022/01/24 02:59:31;;;;;;;9.52;5.47;;;;;;;;;;4921817;29;20016;-86
2022/01/24 03:01:57;;;;;;;10.48;6.47;;;;;;;;;;4938451;29;20042;-85
2022/01/24 03:04:23;;;;;;;13.40;6.70;;;;;;;;;;4942485;29;20020;-86
2022/01/24 03:06:49;;;;;;;12.30;5.85;;;;;;;;;;4945218;29;20047;-86
2022/01/24 03:09:15;;;;;;;9.95;6.35;;;;;;;;;;4944376;29;20027;-86
2022/01/24 03:14:23;;;;;;;11.10;6.25;;;;;;;;;;4939637;29;20024;-84
2022/01/24 03:16:49;;;;;;;12.70;6.20;;;;;;;;;;4929550;29;20040;-85
2022/01/24 03:19:15;;;;;;;8.85;5.40;;;;;;;;;;4935052;29;20032;-84
2022/01/24 03:21:42;;;;;;;9.80;6.20;;;;;;;;;;4941870;29;20112;-83
2022/01/24 03:24:07;;;;;;;11.13;6.45;;;;;;;;;;4942008;29;20038;-85
2022/01/24 03:26:33;;;;;;;9.98;5.68;;;;;;;;;;4942903;29;20032;-85
2022/01/24 03:28:58;;;;;;;13.05;6.85;;;;;;;;;;4941038;29;20107;-83
2022/01/24 03:31:23;;;;;;;10.02;6.47;;;;;;;;;;4942291;29;20035;-83
2022/01/24 03:33:49;;;;;;;12.80;6.40;;;;;;;;;;4934112;29;20067;-82
2022/01/24 03:36:14;;;;;;;13.10;6.18;;;;;;;;;;4941372;29;20016;-83
2022/01/24 03:38:40;;;;;;;9.95;5.95;;;;;;;;;;4940853;29;20032;-84
2022/01/24 03:41:05;;;;;;;13.75;5.97;;;;;;;;;;4940016;29;20055;-82
2022/01/24 03:43:30;;;;;;;9.73;6.65;;;;;;;;;;4937387;29;20199;-83
2022/01/24 03:48:46;;;;;;;10.43;6.22;;;;;;;;;;4941150;29;20047;-85
2022/01/24 03:51:12;;;;;;;10.50;6.50;;;;;;;;;;4924548;29;20039;-83
2022/01/24 03:53:39;;;;;;;11.07;6.28;;;;;;;;;;4926334;29;20031;-85
2022/01/24 03:56:05;;;;;;;9.27;6.13;;;;;;;;;;4942556;29;20031;-85
2022/01/24 03:58:31;;;;;;;9.93;6.32;;;;;;;;;;4940951;29;20023;-84
2022/01/24 04:00:57;;;;;;;10.68;6.13;;;;;;;;;;4944624;29;20091;-84
2022/01/24 04:03:23;;;;;;;10.43;6.60;;;;;;;;;;4942908;29;20027;-85
2022/01/24 04:05:48;;;;;;;10.77;6.30;;;;;;;;;;4943111;29;20036;-82
2022/01/24 04:08:14;;;;;;;13.40;7.25;;;;;;;;;;4941158;29;20083;-85
2022/01/24 04:10:43;;;;;;;11.63;6.32;;;;;;;;;;4941110;29;20087;-85
2022/01/24 04:13:24;;;;;;;12.18;6.18;;;;;;;;;;4941473;29;20028;-85
2022/01/24 04:16:11;;;;;;;14.23;7.40;;;;;;;;;;4941162;29;20119;-85
2022/01/24 04:21:32;;;;;;;14.75;6.50;;;;;;;;;;4942423;29;20024;-84
2022/01/24 04:24:08;;;;;;;10.98;6.20;;;;;;;;;;4942510;29;20087;-85
2022/01/24 04:26:35;;;;;;;14.68;6.82;;;;;;;;;;4948046;28;20055;-84
2022/01/24 04:29:00;;;;;;;13.55;6.93;;;;;;;;;;4938619;29;20107;-85
2022/01/24 04:31:26;;;;;;;13.65;7.72;;;;;;;;;;4940174;29;20047;-84
2022/01/24 04:33:52;;;;;;;12.32;7.43;;;;;;;;;;4941265;29;20028;-84
2022/01/24 04:36:19;;;;;;;15.13;7.85;;;;;;;;;;4946917;29;20544;-84
2022/01/24 04:38:45;;;;;;;17.20;8.65;;;;;;;;;;4945944;29;20054;-84
2022/01/24 04:41:20;;;;;;;14.27;7.55;;;;;;;;;;4947000;29;20486;-84
2022/01/24 04:46:30;;;;;;;13.38;7.53;;;;;;;;;;4938048;29;20087;-85
2022/01/24 04:54:54;;;;;;;12.23;7.30;;;;;;;;;;4945945;29;20095;-86
2022/01/24 04:57:00;;;;;;;14.38;7.78;;;;;;;;;;4941141;29;20506;-85
2022/01/24 04:59:26;;;;;;;12.88;7.03;;;;;;;;;;4943694;29;20023;-85
2022/01/24 05:01:51;;;;;;;15.45;6.97;;;;;;;;;;4944556;29;20039;-84
2022/01/24 05:04:17;;;;;;;12.27;7.03;;;;;;;;;;4926847;29;20696;-85
2022/01/24 05:06:43;;;;;;;13.50;7.72;;;;;;;;;;4944426;29;20036;-85
2022/01/24 05:09:08;;;;;;;13.20;7.53;;;;;;;;;;4926948;29;20035;-84
2022/01/24 05:11:48;;;;;;;16.95;8.00;;;;;;;;;;4944443;29;20034;-85
2022/01/24 05:25:10;;;;;;;15.55;7.53;;;;;;;;;;4943415;29;20471;-85
2022/01/24 05:27:35;;;;;;;16.00;7.50;;;;;;;;;;4942677;29;20024;-86
2022/01/24 05:30:00;;;;;;;18.38;7.25;;;;;;;;;;4925874;29;20091;-85
2022/01/24 05:32:26;;;;;;;12.55;6.75;;;;;;;;;;4925391;29;20070;-85
2022/01/24 05:34:51;;;;;;;11.20;6.95;;;;;;;;;;4941980;29;20023;-84
2022/01/24 05:37:17;;;;;;;11.10;6.97;;;;;;;;;;4948871;29;20103;-85
2022/01/24 05:39:42;;;;;;;16.20;7.63;;;;;;;;;;4941886;29;20028;-84
2022/01/24 05:42:08;;;;;;;11.27;6.68;;;;;;;;;;4940434;29;20087;-85
2022/01/24 05:44:33;;;;;;;12.98;6.80;;;;;;;;;;4926087;29;20027;-85
2022/01/24 05:46:58;;;;;;;11.10;6.72;;;;;;;;;;4939550;29;20056;-82
2022/01/24 05:49:23;;;;;;;13.90;6.70;;;;;;;;;;4937531;29;20063;-83
2022/01/24 05:51:49;;;;;;;11.90;7.00;;;;;;;;;;4938984;29;20024;-83
2022/01/24 05:54:14;;;;;;;11.98;7.15;;;;;;;;;;4939931;29;20032;-83
2022/01/24 05:56:40;;;;;;;13.75;7.80;;;;;;;;;;4940226;29;20390;-84
2022/01/24 05:59:05;;;;;;;15.10;7.47;;;;;;;;;;4935008;29;20064;-80
2022/01/24 06:01:30;;;;;;;12.98;7.88;;;;;;;;;;4920522;29;20088;-85
2022/01/24 06:03:56;;;;;;;14.30;8.23;;;;;;;;;;4920517;29;20028;-83
2022/01/24 06:06:21;;;;;;;16.23;9.35;;;;;;;;;;4921313;29;20032;-83
2022/01/24 06:08:46;;;;;;;15.05;7.82;;;;;;;;;;4937208;29;20111;-84
2022/01/24 06:11:12;;;;;;;12.60;7.78;;;;;;;;;;4920775;29;20024;-83
2022/01/24 06:13:37;;;;;;;13.32;7.40;;;;;;;;;;4939465;29;20055;-83
2022/01/24 06:16:03;;;;;;;16.23;8.82;;;;;;;;;;4939315;29;20198;-83
2022/01/24 06:18:28;;;;;;;14.05;7.78;;;;;;;;;;4938390;29;20028;-84
2022/01/24 06:20:54;;;;;;;13.70;7.60;;;;;;;;;;4939475;29;20038;-81
2022/01/24 06:23:20;;;;;;;13.35;7.43;;;;;;;;;;4939898;29;20024;-81
2022/01/24 06:25:45;;;;;;;15.23;7.60;;;;;;;;;;4942950;29;20062;-83
2022/01/24 06:28:11;;;;;;;12.02;7.03;;;;;;;;;;4946830;29;20031;-81
2022/01/24 06:30:36;;;;;;;12.57;8.38;;;;;;;;;;4950058;29;20038;-83
2022/01/24 06:33:02;;;;;;;16.23;8.52;;;;;;;;;;4952674;29;20095;-81
2022/01/24 06:35:27;;;;;;;14.23;8.52;;;;;;;;;;4963048;29;20023;-82
2022/01/24 06:37:53;;;;;;;16.65;7.97;;;;;;;;;;4959801;29;20031;-82
2022/01/24 06:40:18;;;;;;;15.90;8.73;;;;;;;;;;4951684;29;20245;-82
2022/01/24 06:42:43;;;;;;;15.40;8.52;;;;;;;;;;4985615;23;20041;-83
2022/01/24 06:45:09;;;;;;;12.25;7.32;;;;;;;;;;5011523;28;20031;-81
2022/01/24 06:47:35;;;;;;;14.90;8.48;;;;;;;;;;4995146;28;20026;-81
2022/01/24 06:50:01;;;;;;;15.48;8.70;;;;;;;;;;5007090;28;20038;-81
2022/01/24 06:52:26;;;;;;;17.33;9.27;;;;;;;;;;5005965;28;20485;-81
2022/01/24 06:54:52;;;;;;;18.27;8.82;;;;;;;;;;4990421;28;20034;-81
2022/01/24 06:57:17;;;;;;;17.58;9.43;;;;;;;;;;4983675;28;20039;-81
2022/01/24 06:59:45;;;;;;;16.65;8.43;;;;;;;;;;4994597;28;20037;-81
2022/01/24 07:02:12;;;;;;;13.63;7.78;;;;;;;;;;5002750;28;20030;-81
2022/01/24 07:04:39;;;;;;;12.43;7.63;;;;;;;;;;4992626;28;20473;-82
2022/01/24 07:07:06;;;;;;;12.70;7.28;;;;;;;;;;4968676;28;20054;-82
2022/01/24 07:09:31;;;;;;;13.77;7.40;;;;;;;;;;4989047;28;20035;-81
2022/01/24 07:11:57;;;;;;;13.90;8.05;;;;;;;;;;4987085;28;20037;-82
2022/01/24 07:14:22;;;;;;;15.43;8.07;;;;;;;;;;4977647;28;20090;-82
2022/01/24 07:19:34;;;;;;;13.02;8.05;;;;;;;;;;4966677;28;20049;-84
2022/01/24 07:22:02;;;;;;;13.23;7.93;;;;;;;;;;4986352;28;20121;-82
2022/01/24 07:24:27;;;;;;;14.15;7.97;;;;;;;;;;4996745;28;20026;-82
2022/01/24 07:26:53;;;;;;;15.52;8.88;;;;;;;;;;4985102;28;20089;-83
2022/01/24 07:29:19;;;;;;;26.42;9.30;;;;;;;;;;4972289;28;20082;-82
2022/01/24 07:31:46;;;;;;;15.45;9.25;;;;;;;;;;5004313;28;20029;-82
2022/01/24 07:34:12;;;;;;;16.83;8.88;;;;;;;;;;4996584;28;20022;-82
2022/01/24 07:36:37;;;;;;;18.80;10.18;;;;;;;;;;4996154;28;20037;-82
2022/01/24 07:39:03;;;;;;;16.35;9.80;;;;;;;;;;4999300;28;20041;-82
2022/01/24 07:41:30;;;;;;;16.88;9.10;;;;;;;;;;5010836;28;20413;-82
2022/01/24 07:43:57;;;;;;;16.85;9.30;;;;;;;;;;4971613;28;20030;-81
2022/01/24 07:46:22;;;;;;;16.17;9.15;;;;;;;;;;4995694;28;20026;-81
2022/01/24 07:48:48;;;;;;;16.52;9.20;;;;;;;;;;4991728;28;20101;-82
2022/01/24 07:51:15;;;;;;;17.42;9.75;;;;;;;;;;4986673;28;20030;-81
2022/01/24 07:53:41;;;;;;;19.33;8.95;;;;;;;;;;4974408;28;20038;-81
2022/01/24 07:56:07;;;;;;;15.65;9.35;;;;;;;;;;4988249;28;20730;-87
2022/01/24 07:58:33;;;;;;;15.75;9.20;;;;;;;;;;4996231;28;20058;-81
2022/01/24 08:00:58;;;;;;;17.08;9.82;;;;;;;;;;4987527;28;20084;-81
2022/01/24 08:03:24;;;;;;;16.15;8.80;;;;;;;;;;4976307;28;20033;-81
2022/01/24 08:05:49;;;;;;;18.77;10.65;;;;;;;;;;4988873;28;20187;-81
2022/01/24 08:08:15;;;;;;;20.75;10.57;;;;;;;;;;4978872;28;20041;-81
2022/01/24 08:10:40;;;;;;;18.05;10.38;;;;;;;;;;4962505;28;20122;-81
2022/01/24 08:13:06;;;;;;;20.05;10.20;;;;;;;;;;4984218;28;20034;-83
2022/01/24 08:15:32;;;;;;;22.25;9.25;;;;;;;;;;4981885;28;20030;-81
2022/01/24 08:17:58;;;;;;;16.35;9.18;;;;;;;;;;4974353;28;20033;-81
2022/01/24 08:20:24;;;;;;;16.10;9.27;;;;;;;;;;4988065;28;20031;-81
2022/01/24 08:22:50;;;;;;;14.07;8.57;;;;;;;;;;4972077;28;20042;-81
2022/01/24 08:25:16;;;;;;;14.20;8.48;;;;;;;;;;4989091;28;20022;-81
2022/01/24 08:27:42;;;;;;;14.88;9.20;;;;;;;;;;4967675;28;20121;-82
2022/01/24 08:30:16;;;;;;;14.68;8.73;;;;;;;;;;4994039;28;20107;-82
2022/01/24 08:32:41;;;;;;;12.88;7.88;;;;;;;;;;4987622;28;20033;-82
2022/01/24 08:35:08;;;;;;;16.30;7.47;;;;;;;;;;4999117;28;20109;-82
2022/01/24 08:37:35;;;;;;;14.00;8.77;;;;;;;;;;4974072;28;20019;-81
2022/01/24 08:40:00;;;;;;;15.75;9.30;;;;;;;;;;4970863;28;20480;-82
2022/01/24 08:42:36;;;;;;;21.33;8.25;;;;;;;;;;4968250;28;20042;-82
2022/01/24 08:47:31;;;;;;;15.23;8.63;;;;;;;;;;4991448;28;20066;-81
2022/01/24 08:49:58;;;;;;;12.38;8.73;;;;;;;;;;4993559;28;20124;-82
2022/01/24 08:52:26;;;;;;;14.75;7.35;;;;;;;;;;4972882;28;20026;-86
2022/01/24 08:54:53;;;;;;;13.35;8.20;;;;;;;;;;5005318;28;20026;-84
2022/01/24 08:57:25;;;;;;;13.63;7.93;;;;;;;;;;4978829;28;20036;-82
2022/01/24 08:59:54;;;;;;;13.88;8.05;;;;;;;;;;4977688;28;20417;-83
2022/01/24 09:02:20;;;;;;;13.68;8.27;;;;;;;;;;4969566;28;20121;-84
2022/01/24 09:04:46;;;;;;;16.65;9.00;;;;;;;;;;4994072;28;20033;-85
2022/01/24 09:07:15;;;;;;;12.25;7.38;;;;;;;;;;4997509;28;20014;-84
2022/01/24 09:09:40;;;;;;;12.02;7.80;;;;;;;;;;4972437;28;20042;-84
2022/01/24 09:12:11;;;;;;;13.35;8.00;;;;;;;;;;4987989;28;20030;-82
2022/01/24 09:14:37;;;;;;;11.73;8.05;;;;;;;;;;4979137;28;20057;-84
2022/01/24 09:17:03;;;;;;;15.55;7.82;;;;;;;;;;4981010;28;20073;-84
2022/01/24 09:19:28;;;;;;;14.20;8.23;;;;;;;;;;4999596;28;20373;-84
2022/01/24 09:21:53;;;;;;;16.75;8.25;;;;;;;;;;4971225;28;20030;-83
2022/01/24 09:24:19;;;;;;;28.65;9.43;;;;;;;;;;4999565;28;20428;-84
2022/01/24 09:26:44;;;;;;;14.18;8.63;;;;;;;;;;4994382;28;20052;-83
2022/01/24 09:29:10;;;;;;;14.60;7.95;;;;;;;;;;4999319;28;20045;-83
2022/01/24 09:31:35;;;;;;;11.73;7.72;;;;;;;;;;5003680;28;20027;-83
2022/01/24 09:34:00;;;;;;;11.05;7.20;;;;;;;;;;4982044;28;20034;-83
2022/01/24 09:36:26;;;;;;;15.50;7.97;;;;;;;;;;5006054;28;20022;-83
2022/01/24 09:38:52;;;;;;;11.68;7.13;;;;;;;;;;5007697;28;20040;-82
2022/01/24 09:41:17;;;;;;;10.93;7.07;;;;;;;;;;4995231;28;20030;-84
2022/01/24 09:43:43;;;;;;;12.20;7.38;;;;;;;;;;4980552;28;20022;-84
2022/01/24 09:46:11;;;;;;;13.43;7.25;;;;;;;;;;4999497;28;20030;-83
2022/01/24 09:48:39;;;;;;;9.85;6.55;;;;;;;;;;5013909;28;20061;-81
2022/01/24 09:51:05;;;;;;;9.40;5.60;;;;;;;;;;5004425;28;20730;-85
2022/01/24 09:53:32;;;;;;;10.88;6.68;;;;;;;;;;4999911;28;20022;-83
2022/01/24 09:56:02;;;;;;;9.10;6.65;;;;;;;;;;4989207;28;20490;-83
2022/01/24 09:58:28;;;;;;;9.32;6.28;;;;;;;;;;4981315;28;20026;-81
2022/01/24 10:00:53;;;;;;;10.35;5.82;;;;;;;;;;4979789;28;20037;-83
2022/01/24 10:03:18;;;;;;;11.10;6.75;;;;;;;;;;4977241;28;20042;-83
2022/01/24 10:05:52;;;;;;;10.40;5.78;;;;;;;;;;4981161;28;20023;-82
2022/01/24 10:08:18;;;;;;;9.00;6.65;;;;;;;;;;4980728;28;20241;-83
2022/01/24 10:10:50;;;;;;;9.85;6.15;;;;;;;;;;4979970;28;20037;-83
2022/01/24 10:16:31;;;;;;;6.90;4.97;;;;;;;;;;5002191;28;20032;-81
2022/01/24 10:19:15;;;;;;;7.70;4.88;;;;;;;;;;4995938;28;20093;-82
2022/01/24 10:21:46;;;;;;;6.80;4.93;;;;;;;;;;4991563;28;20527;-83
2022/01/24 10:24:30;;;;;;;7.85;4.82;;;;;;;;;;5007314;28;20559;-84
2022/01/24 10:27:18;;;;;;;7.13;4.78;;;;;;;;;;4983138;28;20032;-83
2022/01/24 10:30:08;;;;;;;7.03;4.93;;;;;;;;;;4995022;28;20484;-82
2022/01/24 10:32:48;;;;;;;10.13;5.35;;;;;;;;;;4998414;28;20022;-84
2022/01/24 10:35:36;;;;;;;5.93;4.47;;;;;;;;;;4981540;28;20030;-83
2022/01/24 10:38:41;;;;;;;6.90;4.47;;;;;;;;;;4973956;28;20022;-82
2022/01/24 10:41:20;;;;;;;6.97;4.95;;;;;;;;;;4999073;28;20022;-83
2022/01/24 10:43:47;;;;;;;8.25;5.20;;;;;;;;;;4981845;28;20057;-82
2022/01/24 10:46:13;;;;;;;9.38;6.53;;;;;;;;;;4998926;28;20036;-83
2022/01/24 10:48:44;;;;;;;10.38;5.93;;;;;;;;;;4996788;28;20030;-83
2022/01/24 10:51:17;;;;;;;12.00;7.00;;;;;;;;;;4981626;28;20116;-83
2022/01/24 10:53:51;;;;;;;8.02;5.43;;;;;;;;;;5006898;28;20056;-83
2022/01/24 10:56:29;;;;;;;7.85;5.53;;;;;;;;;;4972394;28;20105;-83
2022/01/24 10:59:04;;;;;;;9.30;5.38;;;;;;;;;;4999154;28;20389;-82
2022/01/24 11:01:29;;;;;;;8.70;4.25;;;;;;;;;;4981483;28;20026;-83
2022/01/24 11:04:04;;;;;;;8.23;5.22;;;;;;;;;;5009912;28;20044;-82
2022/01/24 11:06:33;;;;;;;8.70;4.57;;;;;;;;;;5018924;28;20025;-82
2022/01/24 11:09:15;;;;;;;6.32;4.80;;;;;;;;;;5018073;28;20026;-82
2022/01/24 11:11:41;;;;;;;;;;;;;;;;;;4993835;28;20030;-83
2022/01/24 11:14:09;;;;;;;7.80;4.90;;;;;;;;;;4998360;28;19945;-83
2022/01/24 11:16:37;;;;;;;7.70;5.03;;;;;;;;;;4997602;28;20169;-84
2022/01/24 11:19:04;;;;;;;5.95;4.55;;;;;;;;;;4982745;28;20026;-83
2022/01/24 11:21:33;;;;;;;8.82;5.07;;;;;;;;;;4981210;28;20142;-85
2022/01/24 11:24:03;;;;;;;6.70;4.72;;;;;;;;;;4981973;28;20030;-84
2022/01/24 11:26:29;;;;;;;7.05;4.72;;;;;;;;;;4973234;28;20027;-84
2022/01/24 11:28:54;;;;;;;8.68;4.05;;;;;;;;;;4991274;28;20078;-84
2022/01/24 11:31:26;;;;;;;5.15;4.35;;;;;;;;;;4990935;28;20101;-84
2022/01/24 11:34:03;;;;;;;7.35;4.95;;;;;;;;;;4978209;28;20030;-83
2022/01/24 11:36:40;;;;;;;7.63;4.55;;;;;;;;;;4992709;28;20030;-83
2022/01/24 11:39:07;;;;;;;6.43;4.50;;;;;;;;;;4993476;28;20174;-82
2022/01/24 11:41:37;;;;;;;8.50;4.68;;;;;;;;;;4989598;28;20019;-83
2022/01/24 11:44:16;;;;;;;8.00;5.28;;;;;;;;;;4995859;28;20030;-82
2022/01/24 11:46:47;;;;;;;7.85;4.28;;;;;;;;;;4996129;28;20029;-81
2022/01/24 11:49:16;;;;;;;8.32;3.95;;;;;;;;;;4980842;28;20117;-84
2022/01/24 11:51:44;;;;;;;8.25;4.20;;;;;;;;;;4997541;28;20041;-83
2022/01/24 11:54:31;;;;;;;7.78;4.20;;;;;;;;;;4998809;28;20030;-83
2022/01/24 11:57:23;;;;;;;6.15;3.35;;;;;;;;;;4972095;28;20031;-84
2022/01/24 11:59:51;;;;;;;5.90;3.90;;;;;;;;;;4980224;28;20026;-82
2022/01/24 12:02:24;;;;;;;6.75;3.78;;;;;;;;;;4980701;28;20065;-83
2022/01/24 12:05:12;;;;;;;8.18;3.70;;;;;;;;;;4976763;28;20109;-83
2022/01/24 12:07:51;;;;;;;4.15;3.63;;;;;;;;;;4998094;28;20019;-83
2022/01/24 12:10:22;;;;;;;6.43;3.63;;;;;;;;;;4981106;28;20031;-83
2022/01/24 12:13:00;;;;;;;6.78;3.45;;;;;;;;;;4995466;28;20400;-84
2022/01/24 12:15:40;;;;;;;5.47;3.22;;;;;;;;;;4991401;28;20029;-82
2022/01/24 12:18:17;;;;;;;10.98;4.30;;;;;;;;;;4998445;28;20080;-84
2022/01/24 12:20:43;;;;;;;5.65;3.38;;;;;;;;;;4982118;28;20052;-82
2022/01/24 12:23:24;;;;;;;4.18;3.35;;;;;;;;;;4997217;28;20576;-83
2022/01/24 12:26:12;;;;;;;7.47;3.42;;;;;;;;;;4979942;28;20053;-86
2022/01/24 12:28:44;;;;;;;7.43;3.85;;;;;;;;;;4974741;28;20041;-83
2022/01/24 12:31:22;;;;;;;7.85;3.40;;;;;;;;;;5003185;28;20033;-84
2022/01/24 12:33:54;;;;;;;4.45;2.42;;;;;;;;;;4997008;28;20057;-85
2022/01/24 12:36:37;;;;;;;5.47;3.28;;;;;;;;;;4996655;28;20026;-83
2022/01/24 12:39:15;;;;;;;5.45;3.10;;;;;;;;;;4987468;28;20030;-83
2022/01/24 12:41:47;;;;;;;5.28;3.30;;;;;;;;;;5005355;28;20029;-84
2022/01/24 12:46:57;;;;;;;3.97;2.70;;;;;;;;;;5001861;28;19920;-82
2022/01/24 12:49:23;;;;;;;5.53;3.60;;;;;;;;;;4987880;28;20511;-83
2022/01/24 12:51:49;;;;;;;5.10;3.10;;;;;;;;;;4991980;28;20018;-85
2022/01/24 12:54:16;;;;;;;3.40;2.78;;;;;;;;;;5006717;28;20165;-83
2022/01/24 12:56:42;;;;;;;3.03;2.63;;;;;;;;;;5004230;28;20033;-83
2022/01/24 12:59:07;;;;;;;4.00;2.90;;;;;;;;;;5003316;28;20034;-82
2022/01/24 13:01:37;;;;;;;6.35;3.55;;;;;;;;;;5000249;28;20038;-84
2022/01/24 13:04:11;;;;;;;3.83;3.20;;;;;;;;;;5000300;28;20026;-85
2022/01/24 13:06:40;;;;;;;4.18;3.17;;;;;;;;;;4983944;28;20082;-84
2022/01/24 13:09:26;;;;;;;3.65;2.72;;;;;;;;;;4999732;28;20113;-85
2022/01/24 13:12:00;;;;;;;9.05;3.00;;;;;;;;;;4985623;28;20037;-84
2022/01/24 13:14:40;;;;;;;4.22;2.78;;;;;;;;;;5002601;28;20026;-83
2022/01/24 13:23:02;;;;;;;4.22;3.20;;;;;;;;;;5002122;28;20141;-85
2022/01/24 13:25:36;;;;;;;6.03;3.20;;;;;;;;;;5000717;28;20023;-84
2022/01/24 13:28:09;;;;;;;4.65;2.63;;;;;;;;;;4981303;28;20023;-84
2022/01/24 13:30:58;;;;;;;5.82;3.10;;;;;;;;;;5001310;28;20032;-85
2022/01/24 13:33:25;;;;;;;6.93;3.22;;;;;;;;;;5000824;28;20050;-84
2022/01/24 13:35:59;;;;;;;4.03;3.10;;;;;;;;;;4982451;28;20045;-85
2022/01/24 13:38:32;;;;;;;4.25;3.00;;;;;;;;;;5003000;28;20018;-85
2022/01/24 13:41:08;;;;;;;6.10;3.10;;;;;;;;;;5004854;28;20393;-84
2022/01/24 13:43:52;;;;;;;3.70;2.97;;;;;;;;;;5005040;28;20034;-85
2022/01/24 13:46:26;;;;;;;5.00;2.85;;;;;;;;;;4981670;28;20082;-85
2022/01/24 13:49:01;;;;;;;4.22;3.03;;;;;;;;;;4996772;28;20034;-83
2022/01/24 13:51:38;;;;;;;8.75;3.05;;;;;;;;;;4992545;28;20018;-84
2022/01/24 13:54:18;;;;;;;7.00;2.92;;;;;;;;;;4991830;28;20018;-83
2022/01/24 13:56:51;;;;;;;4.70;2.78;;;;;;;;;;4993201;28;20026;-83
2022/01/24 13:59:35;;;;;;;6.65;3.33;;;;;;;;;;4985286;28;20053;-84
2022/01/24 14:02:16;;;;;;;6.82;3.00;;;;;;;;;;5010000;28;20049;-85
2022/01/24 14:04:49;;;;;;;4.70;3.20;;;;;;;;;;4992292;28;20449;-85
2022/01/24 14:07:31;;;;;;;4.63;3.05;;;;;;;;;;5009722;28;20069;-83
2022/01/24 14:10:03;;;;;;;5.03;3.22;;;;;;;;;;4990179;28;20030;-84
2022/01/24 14:12:55;;;;;;;5.15;3.38;;;;;;;;;;4992087;28;20022;-83
2022/01/24 14:20:41;;;;;;;4.63;3.22;;;;;;;;;;4983891;28;20029;-84
2022/01/24 14:23:26;;;;;;;5.10;3.35;;;;;;;;;;4998966;28;20039;-83
2022/01/24 14:25:52;;;;;;;6.32;3.78;;;;;;;;;;4982039;28;20030;-82
2022/01/24 14:28:22;;;;;;;12.23;4.15;;;;;;;;;;4989520;28;20112;-82
2022/01/24 14:30:49;;;;;;;5.95;3.78;;;;;;;;;;5002143;28;20077;-83
2022/01/24 14:33:16;;;;;;;5.53;3.28;;;;;;;;;;4988092;28;20033;-83
2022/01/24 14:35:52;;;;;;;5.72;3.28;;;;;;;;;;4994830;28;20026;-82
2022/01/24 14:38:39;;;;;;;8.02;3.30;;;;;;;;;;4981083;28;20066;-83
2022/01/24 14:41:07;;;;;;;4.50;3.20;;;;;;;;;;4997678;28;20026;-84
2022/01/24 14:46:22;;;;;;;6.78;3.55;;;;;;;;;;4996877;28;20448;-84
2022/01/24 14:49:07;;;;;;;6.10;3.10;;;;;;;;;;4975618;28;20045;-83
2022/01/24 14:51:35;;;;;;;6.82;3.05;;;;;;;;;;4994497;28;20050;-85
2022/01/24 14:54:04;;;;;;;5.95;3.53;;;;;;;;;;5000560;28;20030;-84
2022/01/24 14:56:31;;;;;;;6.07;3.08;;;;;;;;;;5002895;28;20496;-85
2022/01/24 14:58:57;;;;;;;5.63;3.17;;;;;;;;;;4981273;28;20407;-85
2022/01/24 15:01:23;;;;;;;3.72;2.72;;;;;;;;;;5002945;28;20033;-84
2022/01/24 15:03:50;;;;;;;4.65;3.28;;;;;;;;;;5002434;28;20069;-84
2022/01/24 15:06:16;;;;;;;3.88;2.90;;;;;;;;;;4995573;28;20051;-84
2022/01/24 15:08:46;;;;;;;4.78;3.45;;;;;;;;;;4980381;28;20033;-85
2022/01/24 15:11:14;;;;;;;6.45;3.00;;;;;;;;;;4997009;28;20109;-83
2022/01/24 15:13:48;;;;;;;8.70;3.08;;;;;;;;;;4997455;28;20519;-82
2022/01/24 15:16:18;;;;;;;6.45;3.30;;;;;;;;;;4980792;28;20054;-83
2022/01/24 15:26:44;;;;;;;7.10;3.05;;;;;;;;;;4997676;28;20026;-83
2022/01/24 15:29:10;;;;;;;7.32;3.15;;;;;;;;;;4995376;28;20029;-84
2022/01/24 15:31:35;;;;;;;6.68;3.42;;;;;;;;;;4979211;28;20033;-83
2022/01/24 15:34:01;;;;;;;5.97;3.15;;;;;;;;;;4997579;28;20033;-83
2022/01/24 15:36:27;;;;;;;5.03;3.10;;;;;;;;;;4980460;28;20061;-83
2022/01/24 15:38:55;;;;;;;4.30;3.08;;;;;;;;;;4996429;28;20026;-83
2022/01/24 15:41:22;;;;;;;4.65;2.72;;;;;;;;;;4997731;28;20112;-83
2022/01/24 15:48:44;;;;;;;5.90;3.33;;;;;;;;;;4997382;28;20548;-83
2022/01/24 15:51:12;;;;;;;6.93;3.17;;;;;;;;;;4979713;28;20026;-83
2022/01/24 15:53:39;;;;;;;6.63;2.80;;;;;;;;;;4996739;28;20042;-83
2022/01/24 15:57:39;;;;;;;5.95;3.58;;;;;;;;;;4997136;28;20029;-81
2022/01/24 15:59:04;;;;;;;10.70;3.25;;;;;;;;;;4994812;28;20026;-82
2022/01/24 16:01:33;;;;;;;10.13;2.90;;;;;;;;;;4994374;28;20025;-83
2022/01/24 16:03:59;;;;;;;5.85;3.65;;;;;;;;;;4996266;28;20484;-82
2022/01/24 16:06:25;;;;;;;5.57;3.20;;;;;;;;;;4976724;28;20076;-82
2022/01/24 16:08:51;;;;;;;5.40;3.90;;;;;;;;;;4993591;28;20400;-82
2022/01/24 16:11:18;;;;;;;8.60;3.22;;;;;;;;;;4996927;28;20029;-82
2022/01/24 16:13:43;;;;;;;9.40;3.67;;;;;;;;;;4993252;28;20022;-82
2022/01/24 16:16:10;;;;;;;5.93;3.42;;;;;;;;;;4994325;28;20113;-82
2022/01/24 16:18:39;;;;;;;4.43;3.05;;;;;;;;;;4996887;28;20036;-82
2022/01/24 16:21:25;;;;;;;5.40;3.50;;;;;;;;;;4997253;28;20110;-82
2022/01/24 16:25:18;;;;;;;5.85;3.47;;;;;;;;;;4996744;28;20065;-82
2022/01/24 16:26:35;;;;;;;5.47;3.17;;;;;;;;;;4995874;28;20034;-82
2022/01/24 16:29:01;;;;;;;4.95;2.63;;;;;;;;;;4992810;28;20480;-82
2022/01/24 16:31:26;;;;;;;5.03;2.85;;;;;;;;;;4995929;28;20473;-82
2022/01/24 16:33:51;;;;;;;4.82;3.08;;;;;;;;;;5004563;28;20029;-82
2022/01/24 16:36:17;;;;;;;4.38;2.80;;;;;;;;;;4990807;28;20472;-82
2022/01/24 16:38:44;;;;;;;4.95;3.00;;;;;;;;;;4994682;28;20026;-82
2022/01/24 16:41:14;;;;;;;10.93;3.60;;;;;;;;;;4977134;28;20570;-82
2022/01/24 16:44:03;;;;;;;6.25;3.42;;;;;;;;;;4995014;28;20026;-81
2022/01/24 16:49:13;;;;;;;7.95;4.30;;;;;;;;;;4999300;28;20100;-81
2022/01/24 16:51:38;;;;;;;5.50;3.67;;;;;;;;;;4996244;28;20073;-81
2022/01/24 16:54:11;;;;;;;7.20;3.88;;;;;;;;;;4994055;28;20158;-81
2022/01/24 16:56:37;;;;;;;5.35;3.58;;;;;;;;;;4966670;28;20020;-82
2022/01/24 16:59:03;;;;;;;5.63;3.33;;;;;;;;;;4963166;28;20027;-82
2022/01/24 17:01:28;;;;;;;9.85;3.80;;;;;;;;;;4979231;28;20522;-80
2022/01/24 17:03:54;;;;;;;4.90;3.35;;;;;;;;;;4986358;28;20447;-81